Time;durP1;ratioP1;P1;durP2;ratioP2;P2;SDS_P1;SDS_P2;PMS_P1;PMS_P2;Temp;Humidity;BMP_temperature;BMP_pressure;BME280_temperature;BME280_humidity;BME280_pressure;Samples;Min_cycle;Max_cycle;Signal;HPM_P1;HPM_P2
2022/10/06 00:01:28;;;;;;;;;;;13.90;99.90;;;;;;8427606;28;19934;-79
2022/10/06 00:05:30;;;;;;;;;;;13.80;99.90;;;;;;8454634;27;21487;-78
2022/10/06 00:09:31;;;;;;;;;;;13.80;99.90;;;;;;8444299;28;20542;-78
2022/10/06 00:13:33;;;;;;;;;;;13.80;99.90;;;;;;8423411;28;19920;-78
2022/10/06 00:17:35;;;;;;;;;;;13.80;99.90;;;;;;8447227;28;19927;-79
2022/10/06 00:21:36;;;;;;;;;;;13.70;99.90;;;;;;8424176;28;19920;-79
2022/10/06 00:25:38;;;;;;;;;;;13.70;99.90;;;;;;8450465;27;20010;-78
2022/10/06 00:29:41;;;;;;;;;;;13.70;99.90;;;;;;8429610;27;19927;-78
2022/10/06 00:33:42;;;;;;;;;;;13.60;99.90;;;;;;8435265;27;19924;-78
2022/10/06 00:37:44;;;;;;;;;;;13.60;99.90;;;;;;8437517;27;19934;-78
2022/10/06 00:41:46;;;;;;;;;;;13.60;99.90;;;;;;8452440;27;19919;-78
2022/10/06 00:45:48;;;;;;;;;;;13.60;99.90;;;;;;8455256;27;19919;-79
2022/10/06 00:49:50;;;;;;;;;;;13.60;99.90;;;;;;8459518;27;19928;-78
2022/10/06 00:53:52;;;;;;;;;;;13.60;99.90;;;;;;8455838;27;19927;-79
2022/10/06 00:57:54;;;;;;;;;;;13.60;99.90;;;;;;8456003;27;19927;-79
2022/10/06 01:01:58;;;;;;;;;;;13.60;99.90;;;;;;8452645;27;19928;-78
2022/10/06 01:06:01;;;;;;;;;;;13.60;99.90;;;;;;8440113;27;19924;-78
2022/10/06 01:10:03;;;;;;;;;;;13.60;99.90;;;;;;8450814;27;19928;-79
2022/10/06 01:14:04;;;;;;;;;;;13.60;99.90;;;;;;8441606;27;19923;-79
2022/10/06 01:23:25;;;;;;;;;;;13.50;99.90;;;;;;8461013;27;19914;-79
2022/10/06 01:27:28;;;;;;;;;;;13.50;99.90;;;;;;8456494;27;20023;-79
2022/10/06 01:31:30;;;;;;;;;;;13.40;99.90;;;;;;8461711;27;20339;-78
2022/10/06 01:35:32;;;;;;;;;;;13.40;99.90;;;;;;8466155;27;19923;-79
2022/10/06 01:39:33;;;;;;;;;;;13.30;99.90;;;;;;8455946;27;20244;-79
2022/10/06 01:43:35;;;;;;;;;;;13.20;99.90;;;;;;8450870;27;20528;-78
2022/10/06 01:47:37;;;;;;;;;;;13.20;99.90;;;;;;8455286;27;20565;-79
2022/10/06 01:51:38;;;;;;;;;;;13.20;99.90;;;;;;8453662;27;19924;-79
2022/10/06 01:55:40;;;;;;;;;;;13.10;99.90;;;;;;8445475;27;19929;-79
2022/10/06 01:59:42;;;;;;;;;;;13.10;99.90;;;;;;8451690;27;19920;-79
2022/10/06 02:03:43;;;;;;;;;;;13.10;99.90;;;;;;8443760;27;19920;-79
2022/10/06 02:07:45;;;;;;;;;;;13.00;99.90;;;;;;8444673;27;19981;-79
2022/10/06 02:11:47;;;;;;;;;;;13.00;99.90;;;;;;8447877;27;19926;-79
2022/10/06 02:15:48;;;;;;;;;;;12.90;99.90;;;;;;8453993;27;20371;-79
2022/10/06 02:19:50;;;;;;;;;;;12.80;99.90;;;;;;8435200;27;19931;-80
2022/10/06 02:23:51;;;;;;;;;;;12.80;99.90;;;;;;8440770;27;19926;-79
2022/10/06 02:27:53;;;;;;;;;;;12.80;99.90;;;;;;8442059;27;20244;-79
2022/10/06 02:31:55;;;;;;;;;;;12.70;99.90;;;;;;8443078;27;20026;-79
2022/10/06 02:35:57;;;;;;;;;;;12.70;99.90;;;;;;8441586;27;19924;-78
2022/10/06 02:39:59;;;;;;;;;;;12.70;99.90;;;;;;8422211;27;19930;-79
2022/10/06 02:44:00;;;;;;;;;;;12.60;99.90;;;;;;8436729;27;20018;-79
2022/10/06 02:48:02;;;;;;;;;;;12.50;99.90;;;;;;8426580;27;19927;-79
2022/10/06 02:52:04;;;;;;;;;;;12.40;99.90;;;;;;8445890;27;19928;-79
2022/10/06 02:56:07;;;;;;;;;;;12.30;99.90;;;;;;8444952;28;19983;-79
2022/10/06 03:05:18;;;;;;;;;;;12.20;99.90;;;;;;8437430;27;19958;-79
2022/10/06 03:09:20;;;;;;;;;;;12.20;99.90;;;;;;8440910;27;19927;-79
2022/10/06 03:13:22;;;;;;;;;;;12.10;99.90;;;;;;8437553;27;19967;-78
2022/10/06 03:17:23;;;;;;;;;;;12.10;99.90;;;;;;8445713;27;19927;-78
2022/10/06 03:21:26;;;;;;;;;;;12.10;99.90;;;;;;8450970;27;19926;-78
2022/10/06 03:25:28;;;;;;;;;;;12.10;99.90;;;;;;8441273;27;19926;-78
2022/10/06 03:29:29;;;;;;;;;;;12.20;99.90;;;;;;8456620;27;20282;-78
2022/10/06 03:33:32;;;;;;;;;;;12.20;99.90;;;;;;8458510;27;19924;-78
2022/10/06 03:37:33;;;;;;;;;;;12.20;99.90;;;;;;8456529;27;19920;-78
2022/10/06 03:41:36;;;;;;;;;;;12.20;99.90;;;;;;8450690;27;19927;-78
2022/10/06 03:45:37;;;;;;;;;;;12.20;99.90;;;;;;8437541;27;19925;-78
2022/10/06 03:49:39;;;;;;;;;;;12.20;99.90;;;;;;8445773;27;20379;-77
2022/10/06 03:53:44;;;;;;;;;;;12.10;99.90;;;;;;8433639;27;19927;-77
2022/10/06 03:57:46;;;;;;;;;;;12.10;99.90;;;;;;8434943;27;19925;-77
2022/10/06 04:01:48;;;;;;;;;;;12.10;99.90;;;;;;8428144;28;19923;-78
2022/10/06 04:05:53;;;;;;;;;;;12.00;99.90;;;;;;8449921;27;19919;-78
2022/10/06 04:09:55;;;;;;;;;;;12.00;99.90;;;;;;8443782;28;19919;-78
2022/10/06 04:13:59;;;;;;;;;;;12.00;99.90;;;;;;8436022;28;19928;-77
2022/10/06 04:18:00;;;;;;;;;;;11.90;99.90;;;;;;8409988;28;20330;-77
2022/10/06 04:22:02;;;;;;;;;;;11.90;99.90;;;;;;8453488;28;20566;-77
2022/10/06 04:26:08;;;;;;;;;;;11.90;99.90;;;;;;8436327;28;19923;-77
2022/10/06 04:30:10;;;;;;;;;;;11.80;99.90;;;;;;8438794;28;19920;-78
2022/10/06 04:34:14;;;;;;;;;;;11.80;99.90;;;;;;8460684;28;20294;-77
2022/10/06 04:38:16;;;;;;;;;;;11.80;99.90;;;;;;8466229;28;19929;-78
2022/10/06 04:42:17;;;;;;;;;;;11.80;99.90;;;;;;8469350;28;20022;-78
2022/10/06 04:46:20;;;;;;;;;;;11.70;99.90;;;;;;8445126;28;19930;-78
2022/10/06 04:50:41;;;;;;;;;;;11.70;99.90;;;;;;8441599;28;20389;-79
2022/10/06 04:54:43;;;;;;;;;;;11.70;99.90;;;;;;8411966;27;1315490;-78
2022/10/06 04:58:49;;;;;;;;;;;11.60;99.90;;;;;;8457954;28;19942;-77
2022/10/06 05:18:01;;;;;;;;;;;11.50;99.90;;;;;;8451109;28;19990;-78
2022/10/06 05:22:03;;;;;;;;;;;11.50;99.90;;;;;;8460468;28;19926;-78
2022/10/06 05:26:05;;;;;;;;;;;11.50;99.90;;;;;;8438769;28;20283;-78
2022/10/06 05:30:07;;;;;;;;;;;11.50;99.90;;;;;;8459109;28;19976;-79
2022/10/06 05:34:08;;;;;;;;;;;11.50;99.90;;;;;;8446044;28;19987;-78
2022/10/06 05:38:10;;;;;;;;;;;11.40;99.90;;;;;;8452373;27;19926;-78
2022/10/06 05:42:12;;;;;;;;;;;11.40;99.90;;;;;;8463903;28;19935;-79
2022/10/06 05:46:19;;;;;;;;;;;11.40;99.90;;;;;;8457858;28;19919;-79
2022/10/06 05:50:21;;;;;;;;;;;11.50;99.90;;;;;;8460306;28;19974;-79
2022/10/06 05:54:22;;;;;;;;;;;11.40;99.90;;;;;;8462319;28;20308;-79
2022/10/06 05:58:24;;;;;;;;;;;11.40;99.90;;;;;;8481232;27;19920;-79
2022/10/06 06:02:25;;;;;;;;;;;11.40;99.90;;;;;;8459574;28;20513;-78
2022/10/06 06:06:47;;;;;;;;;;;11.40;99.90;;;;;;8447855;28;19994;-79
2022/10/06 06:10:49;;;;;;;;;;;11.40;99.90;;;;;;8463830;28;20386;-78
2022/10/06 06:19:12;;;;;;;;;;;11.40;99.90;;;;;;8448567;28;19919;-79
2022/10/06 06:23:13;;;;;;;;;;;11.40;99.90;;;;;;8455821;28;19942;-78
2022/10/06 06:27:16;;;;;;;;;;;11.40;99.90;;;;;;8459680;28;20431;-78
2022/10/06 06:31:21;;;;;;;;;;;11.50;99.90;;;;;;8458669;28;19967;-78
2022/10/06 10:58:19;;;;;;;;;;;16.70;99.90;;;;;;8415105;28;20460;-79
2022/10/06 11:02:21;;;;;;;;;;;16.60;99.90;;;;;;8402267;28;20371;-78
2022/10/06 11:06:42;;;;;;;;;;;16.60;99.90;;;;;;8409743;28;19934;-79
2022/10/06 11:10:54;;;;;;;;;;;16.60;99.90;;;;;;8390260;28;19924;-78
2022/10/06 11:15:00;;;;;;;;;;;16.70;99.90;;;;;;8408493;28;19924;-79
2022/10/06 11:19:02;;;;;;;;;;;16.80;99.90;;;;;;8408976;28;19927;-78
2022/10/06 11:23:17;;;;;;;;;;;17.10;99.90;;;;;;8397924;28;19947;-79
2022/10/06 11:27:25;;;;;;;;;;;17.30;99.90;;;;;;8403836;28;19921;-79
2022/10/06 11:31:33;;;;;;;;;;;17.30;99.90;;;;;;8406665;28;19938;-79
2022/10/06 11:35:36;;;;;;;;;;;17.50;99.90;;;;;;8408097;28;19920;-79
2022/10/06 11:39:57;;;;;;;;;;;17.80;99.90;;;;;;8386897;28;19934;-78
2022/10/06 11:44:18;;;;;;;;;;;17.90;99.90;;;;;;8407964;28;20406;-79
2022/10/06 11:48:22;;;;;;;;;;;18.00;99.90;;;;;;8407289;28;19930;-79
2022/10/06 11:52:23;;;;;;;;;;;18.00;99.90;;;;;;8392654;28;19924;-80
2022/10/06 11:56:35;;;;;;;;;;;18.20;99.90;;;;;;8384254;28;19921;-79
2022/10/06 12:00:37;;;;;;;;;;;18.10;99.90;;;;;;8393862;28;19931;-78
2022/10/06 12:04:38;;;;;;;;;;;18.10;99.90;;;;;;8400241;28;19946;-78
2022/10/06 12:08:40;;;;;;;;;;;18.00;99.90;;;;;;8413770;28;19920;-79
2022/10/06 12:12:43;;;;;;;;;;;17.70;99.90;;;;;;8415283;28;19927;-77
2022/10/06 12:16:50;;;;;;;;;;;17.50;99.90;;;;;;8397643;28;19951;-78
2022/10/06 12:21:30;;;;;;;;;;;17.50;99.90;;;;;;8402166;28;19925;-78
2022/10/06 12:25:48;;;;;;;;;;;17.60;99.90;;;;;;8410978;28;19942;-79
2022/10/06 12:29:54;;;;;;;;;;;17.30;99.90;;;;;;8414277;28;19924;-78
2022/10/06 12:33:56;;;;;;;;;;;17.40;99.90;;;;;;8415049;28;19932;-78
2022/10/06 12:38:03;;;;;;;;;;;17.40;99.90;;;;;;8395940;28;19928;-78
2022/10/06 12:42:06;;;;;;;;;;;17.30;99.90;;;;;;8400554;28;19928;-79
2022/10/06 12:46:17;;;;;;;;;;;17.10;99.90;;;;;;8390617;28;19966;-78
2022/10/06 12:50:21;;;;;;;;;;;17.10;99.90;;;;;;8411273;28;19994;-79
2022/10/06 12:54:33;;;;;;;;;;;17.10;99.90;;;;;;8412249;28;19930;-79
2022/10/06 12:58:35;;;;;;;;;;;17.20;99.90;;;;;;8407904;28;20011;-78
2022/10/06 13:02:37;;;;;;;;;;;17.40;99.90;;;;;;8406093;28;19924;-77
2022/10/06 13:06:47;;;;;;;;;;;17.40;99.90;;;;;;8409063;28;19924;-78
2022/10/06 13:10:48;;;;;;;;;;;17.40;99.90;;;;;;8406397;28;20398;-79
2022/10/06 13:15:08;;;;;;;;;;;17.50;99.90;;;;;;8403002;28;19968;-79
2022/10/06 13:19:15;;;;;;;;;;;17.50;99.90;;;;;;8390191;28;20018;-78
2022/10/06 13:23:20;;;;;;;;;;;17.40;99.90;;;;;;8401793;28;19928;-78
2022/10/06 13:27:22;;;;;;;;;;;17.40;99.90;;;;;;8412113;28;19956;-79
2022/10/06 13:31:30;;;;;;;;;;;17.40;99.90;;;;;;8392265;28;19931;-78
2022/10/06 13:35:32;;;;;;;;;;;17.40;99.90;;;;;;8410908;28;19924;-78
2022/10/06 13:39:34;;;;;;;;;;;17.60;99.90;;;;;;8407391;28;19920;-78
2022/10/06 13:43:41;;;;;;;;;;;17.70;99.90;;;;;;8406213;28;20287;-79
2022/10/06 13:47:42;;;;;;;;;;;17.80;99.90;;;;;;8408668;28;20321;-79
2022/10/06 13:51:49;;;;;;;;;;;17.80;99.90;;;;;;8412145;28;20027;-79
2022/10/06 13:55:51;;;;;;;;;;;17.90;99.90;;;;;;8413140;28;19934;-78
2022/10/06 14:00:04;;;;;;;;;;;18.10;99.90;;;;;;8391313;28;19924;-78
2022/10/06 14:04:19;;;;;;;;;;;18.30;99.90;;;;;;8401927;28;19981;-79
2022/10/06 14:08:25;;;;;;;;;;;18.40;99.90;;;;;;8399649;28;20379;-79
2022/10/06 14:12:27;;;;;;;;;;;18.70;99.90;;;;;;8401160;28;19920;-78
2022/10/06 14:16:29;;;;;;;;;;;19.00;99.90;;;;;;8400126;28;20291;-78
2022/10/06 14:20:37;;;;;;;;;;;19.30;99.90;;;;;;8384544;28;19943;-77
2022/10/06 14:24:49;;;;;;;;;;;19.30;99.90;;;;;;8406327;28;20018;-78
2022/10/06 14:28:51;;;;;;;;;;;19.00;99.90;;;;;;8405109;28;20320;-79
2022/10/06 14:32:53;;;;;;;;;;;18.80;99.90;;;;;;8407181;28;19982;-79
2022/10/06 14:36:56;;;;;;;;;;;18.80;99.90;;;;;;8411704;27;19924;-78
2022/10/06 14:41:00;;;;;;;;;;;18.90;99.90;;;;;;8402375;28;20363;-79
2022/10/06 14:45:02;;;;;;;;;;;18.60;99.90;;;;;;8403841;28;20228;-77
2022/10/06 14:49:06;;;;;;;;;;;18.40;99.90;;;;;;8422654;27;19970;-78
2022/10/06 14:53:09;;;;;;;;;;;18.20;99.90;;;;;;8424407;27;19959;-78
2022/10/06 14:57:12;;;;;;;;;;;18.00;99.90;;;;;;8405827;28;19927;-78
2022/10/06 15:01:15;;;;;;;;;;;17.80;99.90;;;;;;8407762;28;19928;-78
2022/10/06 15:05:17;;;;;;;;;;;17.60;99.90;;;;;;8407263;28;19920;-78
2022/10/06 15:09:19;;;;;;;;;;;17.50;99.90;;;;;;8394412;28;19928;-80
2022/10/06 15:13:20;;;;;;;;;;;17.40;99.90;;;;;;8405881;28;19928;-77
2022/10/06 15:17:23;;;;;;;;;;;17.30;99.90;;;;;;8397166;28;19971;-77
2022/10/06 15:21:25;;;;;;;;;;;17.30;99.90;;;;;;8397211;28;20161;-77
2022/10/06 15:29:47;;;;;;;;;;;17.30;99.90;;;;;;8404961;28;19924;-78
2022/10/06 15:33:50;;;;;;;;;;;17.30;99.90;;;;;;8399256;28;19935;-78
2022/10/06 15:37:54;;;;;;;;;;;17.40;99.90;;;;;;8398559;28;19928;-78
2022/10/06 15:41:57;;;;;;;;;;;17.40;99.90;;;;;;8402201;28;19920;-78
2022/10/06 15:45:58;;;;;;;;;;;17.40;99.90;;;;;;8390892;28;20393;-78
2022/10/06 15:50:02;;;;;;;;;;;17.40;99.90;;;;;;8399406;28;19924;-78
2022/10/06 15:54:04;;;;;;;;;;;17.40;99.90;;;;;;8394524;28;20371;-78
2022/10/06 15:58:05;;;;;;;;;;;17.30;99.90;;;;;;8387657;28;19926;-78
2022/10/06 16:02:15;;;;;;;;;;;17.30;99.90;;;;;;8403172;28;20370;-78
2022/10/06 16:06:19;;;;;;;;;;;17.20;99.90;;;;;;8410538;28;19927;-78
2022/10/06 16:10:21;;;;;;;;;;;17.10;99.90;;;;;;8400748;28;20367;-78
2022/10/06 16:14:23;;;;;;;;;;;17.10;99.90;;;;;;8399312;28;19924;-79
2022/10/06 16:18:24;;;;;;;;;;;17.00;99.90;;;;;;8397860;28;19920;-77
2022/10/06 16:22:26;;;;;;;;;;;16.80;99.90;;;;;;8393885;28;20373;-78
2022/10/06 16:26:28;;;;;;;;;;;16.70;99.90;;;;;;8381704;28;19942;-78
2022/10/06 16:30:30;;;;;;;;;;;16.50;99.90;;;;;;8406834;28;20302;-78
2022/10/06 16:34:31;;;;;;;;;;;16.40;99.90;;;;;;8388610;28;19920;-78
2022/10/06 16:38:33;;;;;;;;;;;16.30;99.90;;;;;;8399883;28;19920;-78
2022/10/06 16:42:35;;;;;;;;;;;16.30;99.90;;;;;;8397560;28;19928;-79
2022/10/06 16:46:37;;;;;;;;;;;16.20;99.90;;;;;;8400919;28;19924;-78
2022/10/06 16:50:39;;;;;;;;;;;16.10;99.90;;;;;;8410093;28;19978;-79
2022/10/06 16:54:40;;;;;;;;;;;16.00;99.90;;;;;;8398387;28;19939;-79
2022/10/06 16:58:43;;;;;;;;;;;15.90;99.90;;;;;;8396991;28;19929;-78
2022/10/06 17:02:45;;;;;;;;;;;15.90;99.90;;;;;;8396104;28;19927;-78
2022/10/06 17:06:50;;;;;;;;;;;15.90;99.90;;;;;;8405705;28;19924;-78
2022/10/06 17:11:02;;;;;;;;;;;15.90;99.90;;;;;;8392411;28;20019;-78
2022/10/06 17:15:04;;;;;;;;;;;15.80;99.90;;;;;;8405524;28;20006;-78
2022/10/06 17:19:05;;;;;;;;;;;15.70;99.90;;;;;;8403796;28;19935;-78
2022/10/06 17:23:08;;;;;;;;;;;15.60;99.90;;;;;;8387503;28;22496;-78
2022/10/06 17:27:10;;;;;;;;;;;15.50;99.90;;;;;;8392024;28;19942;-78
2022/10/06 17:31:12;;;;;;;;;;;15.40;99.90;;;;;;8410735;28;19956;-78
2022/10/06 17:35:14;;;;;;;;;;;15.30;99.90;;;;;;8397879;28;20280;-78
2022/10/06 17:39:17;;;;;;;;;;;15.10;99.90;;;;;;8409509;28;19924;-78
2022/10/06 17:43:19;;;;;;;;;;;15.00;99.90;;;;;;8409921;28;19927;-78
2022/10/06 17:47:20;;;;;;;;;;;14.90;99.90;;;;;;8404119;28;20386;-78
2022/10/06 17:51:23;;;;;;;;;;;14.80;99.90;;;;;;8404552;28;19924;-78
2022/10/06 17:55:26;;;;;;;;;;;14.70;99.90;;;;;;8393854;28;19920;-78
2022/10/06 17:59:29;;;;;;;;;;;14.70;99.90;;;;;;8418873;28;19928;-78
2022/10/06 18:03:35;;;;;;;;;;;14.60;99.90;;;;;;8423529;27;20371;-78
2022/10/06 18:07:37;;;;;;;;;;;14.40;99.90;;;;;;8406729;28;20379;-78
2022/10/06 18:11:43;;;;;;;;;;;14.30;99.90;;;;;;8402579;28;19920;-78
2022/10/06 18:15:45;;;;;;;;;;;14.20;99.90;;;;;;8399410;28;19990;-78
2022/10/06 18:19:48;;;;;;;;;;;14.20;99.90;;;;;;8391512;28;19963;-78
2022/10/06 18:23:49;;;;;;;;;;;14.00;99.90;;;;;;8405495;28;19955;-77
2022/10/06 18:27:51;;;;;;;;;;;14.00;99.90;;;;;;8404971;28;20350;-78
2022/10/06 18:31:53;;;;;;;;;;;13.90;99.90;;;;;;8424434;27;19930;-78
2022/10/06 18:35:59;;;;;;;;;;;13.90;99.90;;;;;;8408319;28;19928;-78
2022/10/06 18:40:13;;;;;;;;;;;13.80;99.90;;;;;;8406685;28;19920;-78
2022/10/06 18:48:53;;;;;;;;;;;13.70;99.90;;;;;;8402833;28;19921;-77
2022/10/06 18:48:57;;;;;;;;;;;13.60;99.90;;;;;;8408180;28;20269;-78
2022/10/06 18:52:58;;;;;;;;;;;13.60;99.90;;;;;;8399876;28;19926;-77
2022/10/06 18:57:00;;;;;;;;;;;13.50;99.90;;;;;;8413432;28;19919;-77
2022/10/06 19:01:05;;;;;;;;;;;13.50;99.90;;;;;;8407947;28;20992;-77
2022/10/06 19:05:07;;;;;;;;;;;13.40;99.90;;;;;;8415587;27;20007;-78
2022/10/06 19:09:16;;;;;;;;;;;13.40;99.90;;;;;;8402225;28;19924;-78
2022/10/06 19:13:20;;;;;;;;;;;13.30;99.90;;;;;;8410647;28;20358;-78
2022/10/06 19:17:23;;;;;;;;;;;13.30;99.90;;;;;;8403153;28;20070;-78
2022/10/06 19:21:24;;;;;;;;;;;13.20;99.90;;;;;;8396320;28;20014;-77
2022/10/06 19:25:26;;;;;;;;;;;13.20;99.90;;;;;;8379705;28;19932;-78
2022/10/06 19:29:35;;;;;;;;;;;13.10;99.90;;;;;;8392088;28;19931;-77
2022/10/06 19:33:37;;;;;;;;;;;13.10;99.90;;;;;;8411813;28;19920;-77
2022/10/06 19:37:39;;;;;;;;;;;13.00;99.90;;;;;;8410561;28;19927;-78
2022/10/06 19:46:01;;;;;;;;;;;12.90;99.90;;;;;;8397974;28;20059;-77
2022/10/06 19:50:03;;;;;;;;;;;12.80;99.90;;;;;;8402982;28;20330;-78
2022/10/06 19:54:11;;;;;;;;;;;12.80;99.90;;;;;;8401862;28;19934;-78
2022/10/06 19:58:13;;;;;;;;;;;12.70;99.90;;;;;;8412239;28;20392;-77
2022/10/06 20:02:15;;;;;;;;;;;12.70;99.90;;;;;;8401855;28;20015;-78
2022/10/06 20:06:17;;;;;;;;;;;12.70;99.90;;;;;;8408385;28;19928;-78
2022/10/06 20:10:18;;;;;;;;;;;12.60;99.90;;;;;;8387176;28;19920;-77
2022/10/06 20:14:22;;;;;;;;;;;12.60;99.90;;;;;;8400364;28;19928;-77
2022/10/06 20:18:24;;;;;;;;;;;12.50;99.90;;;;;;8403844;28;19924;-77
2022/10/06 20:22:26;;;;;;;;;;;12.50;99.90;;;;;;8396471;28;19931;-77
2022/10/06 20:26:31;;;;;;;;;;;12.40;99.90;;;;;;8391813;28;19920;-77
2022/10/06 20:30:34;;;;;;;;;;;12.40;99.90;;;;;;8370742;28;19920;-77
2022/10/06 20:34:36;;;;;;;;;;;12.30;99.90;;;;;;8392207;28;19927;-77
2022/10/06 20:40:37;;;;;;;;;;;12.20;99.90;;;;;;8391647;28;19920;-77
2022/10/06 20:43:12;;;;;;;;;;;12.20;99.90;;;;;;8390083;28;20268;-77
2022/10/06 20:47:16;;;;;;;;;;;12.10;99.90;;;;;;8391687;28;20445;-77
2022/10/06 20:51:17;;;;;;;;;;;12.00;99.90;;;;;;8395961;28;20374;-77
2022/10/06 20:55:19;;;;;;;;;;;12.00;99.90;;;;;;8400656;28;19924;-77
2022/10/06 20:59:22;;;;;;;;;;;12.00;99.90;;;;;;8399964;28;20023;-77
2022/10/06 21:03:23;;;;;;;;;;;11.90;99.90;;;;;;8411170;28;21896;-77
2022/10/06 21:07:25;;;;;;;;;;;11.90;99.90;;;;;;8414695;28;20002;-77
2022/10/06 21:11:27;;;;;;;;;;;11.90;99.90;;;;;;8420065;28;20019;-78
2022/10/06 21:15:29;;;;;;;;;;;11.80;99.90;;;;;;8409272;28;19927;-77
2022/10/06 21:19:32;;;;;;;;;;;11.80;99.90;;;;;;8406514;28;19920;-77
2022/10/06 21:23:35;;;;;;;;;;;11.70;99.90;;;;;;8400450;28;19920;-77
2022/10/06 21:27:38;;;;;;;;;;;11.70;99.90;;;;;;8416983;28;20018;-77
2022/10/06 21:31:40;;;;;;;;;;;11.60;99.90;;;;;;8402079;28;19919;-77
2022/10/06 21:35:41;;;;;;;;;;;11.60;99.90;;;;;;8422915;28;19924;-78
2022/10/06 21:39:43;;;;;;;;;;;11.50;99.90;;;;;;8417457;28;22236;-78
2022/10/06 21:43:45;;;;;;;;;;;11.50;99.90;;;;;;8417661;28;20049;-77
2022/10/06 21:47:46;;;;;;;;;;;11.40;99.90;;;;;;8394428;28;19931;-77
2022/10/06 21:51:50;;;;;;;;;;;11.40;99.90;;;;;;8419189;28;19926;-77
2022/10/06 21:55:52;;;;;;;;;;;11.40;99.90;;;;;;8411023;28;19931;-77
2022/10/06 21:59:53;;;;;;;;;;;11.40;99.90;;;;;;8430446;28;20251;-77
2022/10/06 22:03:56;;;;;;;;;;;11.30;99.90;;;;;;8420880;28;19920;-77
2022/10/06 22:07:58;;;;;;;;;;;11.30;99.90;;;;;;8416732;28;20362;-77
2022/10/06 22:11:59;;;;;;;;;;;11.30;99.90;;;;;;8412953;28;20384;-77
2022/10/06 22:16:02;;;;;;;;;;;11.20;99.90;;;;;;8386649;28;20298;-77
2022/10/06 22:20:04;;;;;;;;;;;11.20;99.90;;;;;;8398452;28;20378;-77
2022/10/06 22:24:08;;;;;;;;;;;11.20;99.90;;;;;;8404801;27;20049;-78
2022/10/06 22:28:09;;;;;;;;;;;11.10;99.90;;;;;;8398643;28;20251;-77
2022/10/06 22:32:11;;;;;;;;;;;11.10;99.90;;;;;;8401208;28;19925;-77
2022/10/06 22:36:13;;;;;;;;;;;11.00;99.90;;;;;;8398909;28;20367;-77
2022/10/06 22:40:14;;;;;;;;;;;11.00;99.90;;;;;;8417334;28;19928;-77
2022/10/06 22:44:16;;;;;;;;;;;11.00;99.90;;;;;;8411084;28;20434;-77
2022/10/06 22:48:18;;;;;;;;;;;10.90;99.90;;;;;;8414076;28;19951;-77
2022/10/06 22:52:19;;;;;;;;;;;10.90;99.90;;;;;;8393189;28;20490;-76
2022/10/06 22:56:21;;;;;;;;;;;10.90;99.90;;;;;;8424442;28;19919;-77
2022/10/06 23:00:23;;;;;;;;;;;10.80;99.90;;;;;;8416479;28;20057;-77
2022/10/06 23:04:24;;;;;;;;;;;10.80;99.90;;;;;;8425624;28;19924;-77
2022/10/06 23:08:26;;;;;;;;;;;10.80;99.90;;;;;;8408514;28;19927;-77
2022/10/06 23:12:34;;;;;;;;;;;10.80;99.90;;;;;;8410643;28;19989;-77
2022/10/06 23:16:36;;;;;;;;;;;10.70;99.90;;;;;;8420827;28;19970;-77
2022/10/06 23:20:38;;;;;;;;;;;10.70;99.90;;;;;;8414055;28;19926;-77
2022/10/06 23:24:39;;;;;;;;;;;10.70;99.90;;;;;;8409090;28;19920;-77
2022/10/06 23:28:41;;;;;;;;;;;10.70;99.90;;;;;;8398865;28;20170;-77
2022/10/06 23:32:43;;;;;;;;;;;10.70;99.90;;;;;;8397068;28;19975;-77
2022/10/06 23:36:44;;;;;;;;;;;10.80;99.90;;;;;;8421911;28;20325;-77
2022/10/06 23:40:46;;;;;;;;;;;10.80;99.90;;;;;;8394356;28;19978;-77
2022/10/06 23:44:48;;;;;;;;;;;10.90;99.90;;;;;;8412260;28;19979;-76
2022/10/06 23:48:49;;;;;;;;;;;10.90;99.90;;;;;;8415502;28;20014;-78
2022/10/06 23:52:51;;;;;;;;;;;11.00;99.90;;;;;;8402596;28;19951;-77
2022/10/06 23:56:54;;;;;;;;;;;11.00;99.90;;;;;;8392674;28;19924;-77
